Georgetown, TX (78628)

12:54 PM CDT on April 26, 2015 (GMT -0500)
River Ridge III | | Change Station
CLOSE
Current Station
Personal Weather Station
Location: Georgetown, TX
Elevation: 807 ft
Nearby Weather Stations

Elev 807 ft 30.62 °N, 97.71 °W | Updated 2 minutes ago

Partly Cloudy
Partly Cloudy
81.1 °F
Feels Like 84 °F
N
4.0
Wind Variable Wind from SSE
Gusts 11.0 mph

Today
High -- | Low -- °F
--% Chance of Precip.
Yesterday
High -- | Low -- °F
Precip. -- in
6:52 AM 8:05 PM
First Quarter, 57% visible
Pressure 29.68 in
Visibility 10.0 miles
Clouds Few 11000 ft
Heat Index 84 °F
Dew Point 70 °F
Humidity 68%
Rainfall 0.00 in
Snow Depth Not available.
UV 11 out of 12
Pollen 8.20 out of 12
Air Quality Not available.
Flu Activity Local Activity
METAR KGTU 261750Z 15009KT 10SM FEW110 27/18 A2968

More Conditions Fewer Conditions

Pressure 29.68 in
Visibility 10.0 miles
Clouds Few 11000 ft
Heat Index 84 °F
Dew Point 70 °F
Humidity 68%
Rainfall 0.00 in
Snow Depth Not available.
UV 11 out of 12
Pollen 8.20 out of 12
Air Quality Not available.
Flu Activity Local Activity
METAR KGTU 261750Z 15009KT 10SM FEW110 27/18 A2968

More Conditions Fewer Conditions

The full scope of the disaster following a powerful 7.8-magnitude earthquake in Nepal may not come into view for days, but global charities are already sending emergency aid. Click to see how you can help.
Nowcast | as of 11:31 am CDT on April 26, 2015

Locations along and east of of a Llano to Fredericksburg to Jourdanton line can expect isolated showers and thunderstorms to develop through 130 PM CDT this afternoon. This activity will move to the northeast around 30 mph. Expect brief moderate rainfall...occasional lightning strikes and wind gusts to 40 mph with the stronger storms. Additional showers and thunderstorms are expected through this afternoon.

×

10-Day Weather Forecast

Almanac

Astronomy

Apr. 26, 2015 Rise Set
Actual Time
Civil Twilight
Nautical Twilight
Astronomical Twilight
Moon
Length of Visible Light
Length of Day
Tomorrow will be .
, % of the Moon is Illuminated

Today's Extremes

State Highs State Lows

Community

WunderPhotos

Upload Photos

1,817,066 photos uploaded!

WunderBlogs® & News

Nearby

Air Quality

  Air Quality AQ Index Pollutant
Not available.

Snow Depth

Station Depth Elevation

Earthquake Activity

City Distance Mag. Time & Date
Minimum magnitude displayed is 2.5.

Coastal Water Temperatures

Place Temperature

Stations

Nearby Weather Stations

Station Location Temp. Windchill Dew Point Humidity Wind Precip. Elev Updated Type